ADDS TAF Board (Experimental) INFO Settings
IDs: Format: Expanded Condensed

KSFO - San Francisco Intl, CA, US

Issued at 1720 UTC 06 Jul 2015
Updated at: 2000 UTC 06 Jul 2015
Time1956Z 06/20Z 06/21Z 06/22Z 06/23Z 07/00Z 07/01Z 07/02Z 07/03Z 07/04Z 07/05Z 07/06Z 07/07Z 07/08Z
Type OBS PRVL PRVL PRVL PRVL PRVL PRVL PRVL PRVL PRVL PRVL PRVL PRVL PRVL
VIS 10 >6 >6 >6 >6 >6 >6 >6 >6 >6 >6 >6 >6 >6
CIG -- -- -- -- -- -- -- -- -- -- 15 15 15 10
Cover SCT FEW SCT SCT SCT SCT SCT SCT SCT SCT BKN BKN BKN OVC
FltCat VFR VFR VFR VFR VFR VFR VFR VFR VFR VFR MVFR MVFR MVFR MVFR
WX -- -- -- -- -- -- -- -- -- -- -- -- -- --
WDir 300 270 260 260 260 260 260 260 260 260 260 260 260 260
WSpd 11 11 16 16 16 16 16 16 16 16 12 12 12 8
WGst -- -- 21 21 21 21 21 21 21 21 -- -- -- --
R01/19
XWnd 11 10 13 13 13 13 13 13 13 13 10 10 10 6
XGst -- -- 17 17 17 17 17 17 17 17 -- -- -- --
HWnd 1 -5 -10 -10 -10 -10 -10 -10 -10 -10 -7 -7 -7 -5
HGst -- -- -13 -13 -13 -13 -13 -13 -13 -13 -- -- -- --
R10/28
XWnd 1 -5 -10 -10 -10 -10 -10 -10 -10 -10 -7 -7 -7 -5
XGst -- -- -13 -13 -13 -13 -13 -13 -13 -13 -- -- -- --
HWnd -11 -10 -13 -13 -13 -13 -13 -13 -13 -13 -10 -10 -10 -6
HGst -- -- -17 -17 -17 -17 -17 -17 -17 -17 -- -- -- --

NOTE: TEMPO conditions in [brackets]. Keep in mind TEMPO conditions might be better (lower impact) than prevailing conditions.

Raw TAF
KSFO 061720Z 0618/0724 27011KT P6SM FEW018 FEW250
  FM062100 26016G21KT P6SM FEW020 SCT250
  FM070500 26012KT P6SM BKN015
  FM070800 26008KT P6SM OVC010
  FM071800 28010KT P6SM FEW010 SCT015
  FM072100 27016KT P6SM FEW012 FEW016


Raw METAR
KSFO 061956Z 30011KT 10SM FEW020 SCT180 21/12 A3008 RMK AO2 SLP185 T02110122
KSFO 061856Z 31011KT 10SM FEW020 SCT180 21/12 A3008 RMK AO2 SLP187 T02060122
KSFO 061756Z 29009KT 10SM FEW020 SCT180 19/12 A3009 RMK AO2 SLP188 T01940122 10194 20156 50000
KSFO 061656Z 27009KT 10SM FEW016 SCT020 18/12 A3009 RMK AO2 SLP190 T01780122

METAR Board
Radar Display
Forecast Discussion

TAF Board Legend

Potential Impact
Threat None Slight Moderate High
Visibility (sm) ≥5.1 5.1>X≥3 3>X≥1 <1
Ceiling (100 ft) ≥30.1 30.1>X≥10 10>X≥5 <5
Wind Speed (kt) <10 10≤X<20 20≤X<30 ≥30
Wind Gust (kt) <15 15≤X<25 25≤X<35 ≥35
Weather No Wx Reported VCTS,-TS,-FZRA,SN TS,FZRA +TS,+FZRA,+SN